createdAt,value
2023-05-17T00:00:38.786Z,3.43
2023-05-17T00:03:06.823Z,3.07
2023-05-17T00:05:34.780Z,3.40
2023-05-17T00:08:02.733Z,3.50
2023-05-17T00:10:30.844Z,3.83
2023-05-17T00:13:00.219Z,4.10
2023-05-17T00:15:28.388Z,3.50
2023-05-17T00:17:57.444Z,3.30
2023-05-17T00:20:25.720Z,3.47
2023-05-17T00:22:53.717Z,3.53
2023-05-17T00:25:21.681Z,4.27
2023-05-17T00:27:49.583Z,3.70
2023-05-17T00:30:18.880Z,3.50
2023-05-17T00:32:48.474Z,3.27
2023-05-17T00:35:16.545Z,3.67
2023-05-17T00:37:47.863Z,3.37
2023-05-17T00:40:16.820Z,3.57
2023-05-17T00:42:45.388Z,3.23
2023-05-17T00:45:13.369Z,3.40
2023-05-17T00:47:42.870Z,3.73
2023-05-17T00:50:12.838Z,3.87
2023-05-17T00:52:41.305Z,3.40
2023-05-17T00:55:10.156Z,3.93
2023-05-17T00:57:39.321Z,4.03
2023-05-17T01:00:08.618Z,3.40
2023-05-17T01:02:36.650Z,3.53
2023-05-17T01:05:07.387Z,4.07
2023-05-17T01:07:36.616Z,4.23
2023-05-17T01:10:04.882Z,3.60
2023-05-17T01:12:51.697Z,4.03
2023-05-17T01:15:27.027Z,3.83
2023-05-17T01:18:02.209Z,4.23
2023-05-17T01:20:37.951Z,3.53
2023-05-17T01:23:25.119Z,4.27
2023-05-17T01:25:58.608Z,3.63
2023-05-17T01:28:28.640Z,4.27
2023-05-17T01:30:58.436Z,3.87
2023-05-17T01:33:27.220Z,4.60
2023-05-17T01:35:55.214Z,3.80
2023-05-17T01:38:23.140Z,4.10
2023-05-17T01:41:02.851Z,4.07
2023-05-17T01:43:40.657Z,4.13
2023-05-17T01:46:13.940Z,4.40
2023-05-17T01:48:48.508Z,4.93
2023-05-17T01:51:20.689Z,4.90
2023-05-17T01:53:56.465Z,4.80
2023-05-17T01:56:29.734Z,3.97
2023-05-17T01:59:00.264Z,4.47
2023-05-17T02:01:31.421Z,4.20
2023-05-17T02:03:59.892Z,4.90
2023-05-17T02:06:27.850Z,3.93
2023-05-17T02:08:55.772Z,4.77
2023-05-17T02:11:24.087Z,5.07
2023-05-17T02:13:53.927Z,4.00
2023-05-17T02:16:23.381Z,4.20
2023-05-17T02:18:51.679Z,3.87
2023-05-17T02:21:19.702Z,4.50
2023-05-17T02:23:47.655Z,4.40
2023-05-17T02:26:15.742Z,5.00
2023-05-17T02:28:43.688Z,4.70
2023-05-17T02:31:11.678Z,4.17
2023-05-17T02:33:41.042Z,4.37
2023-05-17T02:36:09.443Z,3.90
2023-05-17T02:38:37.325Z,3.70
2023-05-17T02:41:25.006Z,4.50
2023-05-17T02:43:52.969Z,4.40
2023-05-17T02:46:21.437Z,4.63
2023-05-17T02:48:50.664Z,4.80
2023-05-17T02:51:18.607Z,4.87
2023-05-17T02:53:46.530Z,5.07
2023-05-17T02:56:14.523Z,4.73
2023-05-17T02:58:42.724Z,4.60
2023-05-17T03:01:10.688Z,5.03
2023-05-17T03:03:38.831Z,4.10
2023-05-17T03:06:08.987Z,4.87
2023-05-17T03:08:36.967Z,4.80
2023-05-17T03:11:05.169Z,4.47
2023-05-17T03:13:33.230Z,4.23
2023-05-17T03:16:01.717Z,4.40
2023-05-17T03:18:29.861Z,3.97
2023-05-17T03:21:18.046Z,4.43
2023-05-17T03:23:46.194Z,3.97
2023-05-17T03:26:14.129Z,4.73
2023-05-17T03:28:47.709Z,4.80
2023-05-17T03:31:17.401Z,4.73
2023-05-17T03:33:45.601Z,4.50
2023-05-17T03:36:14.497Z,4.67
2023-05-17T03:38:43.805Z,5.38
2023-05-17T03:41:13.638Z,5.30
2023-05-17T03:43:42.169Z,4.70
2023-05-17T03:46:12.593Z,5.13
2023-05-17T03:48:40.577Z,5.40
2023-05-17T03:51:08.789Z,6.07
2023-05-17T03:53:40.992Z,5.70
2023-05-17T03:56:10.447Z,5.53
2023-05-17T03:58:39.681Z,6.10
2023-05-17T04:01:07.697Z,5.70
2023-05-17T04:03:37.397Z,6.00
2023-05-17T04:06:07.372Z,5.50
2023-05-17T04:08:37.022Z,6.30
2023-05-17T04:11:10.327Z,6.13
2023-05-17T04:13:40.564Z,6.23
2023-05-17T04:16:09.352Z,6.50
2023-05-17T04:18:39.924Z,7.30
2023-05-17T04:21:08.378Z,7.43
2023-05-17T04:23:37.271Z,7.50
2023-05-17T04:26:06.099Z,6.37
2023-05-17T04:28:36.706Z,7.80
2023-05-17T04:31:09.570Z,6.90
2023-05-17T04:33:37.943Z,8.20
2023-05-17T04:36:08.263Z,8.03
2023-05-17T04:38:37.948Z,7.40
2023-05-17T04:41:09.401Z,7.03
2023-05-17T04:43:39.271Z,7.23
2023-05-17T04:46:33.028Z,7.97
2023-05-17T04:49:01.150Z,7.33
2023-05-17T04:51:29.868Z,8.60
2023-05-17T04:53:58.442Z,8.57
2023-05-17T04:56:26.562Z,7.57
2023-05-17T04:58:54.753Z,7.33
2023-05-17T05:01:23.394Z,8.20
2023-05-17T05:03:54.022Z,7.63
2023-05-17T05:06:22.307Z,7.93
2023-05-17T05:08:50.451Z,7.87
2023-05-17T05:11:18.464Z,7.50
2023-05-17T05:13:46.610Z,8.70
2023-05-17T05:16:14.599Z,7.67
2023-05-17T05:18:44.157Z,8.30
2023-05-17T05:21:13.665Z,8.00
2023-05-17T05:23:41.682Z,7.67
2023-05-17T05:26:09.744Z,8.30
2023-05-17T05:28:37.641Z,8.73
2023-05-17T05:31:05.733Z,8.13
2023-05-17T05:33:43.482Z,7.93
2023-05-17T05:36:12.932Z,8.10
2023-05-17T05:38:41.032Z,7.77
2023-05-17T05:43:55.846Z,7.30
2023-05-17T05:46:23.812Z,8.37
2023-05-17T05:49:11.864Z,8.10
2023-05-17T05:52:00.082Z,7.37
2023-05-17T05:54:30.458Z,7.37
2023-05-17T05:57:00.765Z,7.53
2023-05-17T05:59:28.759Z,6.20
2023-05-17T06:01:58.654Z,6.07
2023-05-17T06:04:33.112Z,7.00
2023-05-17T06:07:10.536Z,6.83
2023-05-17T06:09:38.502Z,6.73
2023-05-17T06:12:06.761Z,7.50
2023-05-17T06:14:36.149Z,6.87
2023-05-17T06:17:04.186Z,6.77
2023-05-17T06:19:32.576Z,5.60
2023-05-17T06:22:00.860Z,6.20
2023-05-17T06:24:30.149Z,6.43
2023-05-17T06:26:58.100Z,6.43
2023-05-17T06:29:26.148Z,5.40
2023-05-17T06:31:56.354Z,6.07
2023-05-17T06:34:24.222Z,4.93
2023-05-17T06:36:52.572Z,5.50
2023-05-17T06:39:20.484Z,5.43
2023-05-17T06:41:49.755Z,5.20
2023-05-17T06:44:18.826Z,5.07
2023-05-17T06:46:48.873Z,3.83
2023-05-17T06:49:16.897Z,3.57
2023-05-17T06:51:44.844Z,3.33
2023-05-17T06:54:12.766Z,3.63
2023-05-17T06:56:40.737Z,3.23
2023-05-17T06:59:10.038Z,2.90
2023-05-17T07:01:38.206Z,3.17
2023-05-17T07:04:06.534Z,3.00
2023-05-17T07:06:34.634Z,3.13
2023-05-17T07:09:02.542Z,2.43
2023-05-17T07:11:30.480Z,2.70
2023-05-17T07:13:58.656Z,2.60
2023-05-17T07:16:28.145Z,2.80
2023-05-17T07:18:56.252Z,2.57
2023-05-17T07:21:24.664Z,2.73
2023-05-17T07:23:55.320Z,3.80
2023-05-17T07:26:23.460Z,3.10
2023-05-17T07:28:51.717Z,3.50
2023-05-17T07:31:19.664Z,2.87
2023-05-17T07:34:09.203Z,3.40
2023-05-17T07:36:37.561Z,3.10
2023-05-17T07:39:06.220Z,3.10
2023-05-17T07:41:34.614Z,2.63
2023-05-17T07:44:02.545Z,2.80
2023-05-17T07:46:30.552Z,2.77
2023-05-17T07:48:59.021Z,2.53
2023-05-17T07:51:28.449Z,2.37
2023-05-17T07:53:56.386Z,2.13
2023-05-17T07:56:24.413Z,2.30
2023-05-17T07:58:52.314Z,2.50
2023-05-17T08:01:22.921Z,2.33
2023-05-17T08:03:50.965Z,2.10
2023-05-17T08:06:19.535Z,2.27
2023-05-17T08:08:48.839Z,2.40
2023-05-17T08:11:16.882Z,2.30
2023-05-17T08:13:44.891Z,2.20
2023-05-17T08:16:14.625Z,2.13
2023-05-17T08:18:43.501Z,1.80
2023-05-17T08:21:12.142Z,2.30
2023-05-17T08:23:40.759Z,2.10
2023-05-17T08:26:10.060Z,2.90
2023-05-17T08:28:37.982Z,2.13
2023-05-17T08:31:07.217Z,2.07
2023-05-17T08:33:54.929Z,2.23
2023-05-17T08:36:22.858Z,2.43
2023-05-17T08:38:51.455Z,2.87
2023-05-17T08:41:21.367Z,3.00
2023-05-17T08:43:50.806Z,2.50
2023-05-17T08:46:21.521Z,2.17
2023-05-17T08:48:51.860Z,2.77
2023-05-17T08:51:20.926Z,2.30
2023-05-17T08:53:50.525Z,2.03
2023-05-17T08:56:21.901Z,2.40
2023-05-17T08:58:56.895Z,2.43
2023-05-17T09:01:27.863Z,1.80
2023-05-17T09:03:57.372Z,2.10
2023-05-17T09:06:25.498Z,2.77
2023-05-17T09:08:54.670Z,2.17
2023-05-17T09:11:31.294Z,2.00
2023-05-17T09:14:18.374Z,1.90
2023-05-17T09:16:46.372Z,1.93
2023-05-17T09:19:18.124Z,1.90
2023-05-17T09:21:49.097Z,2.10
2023-05-17T09:24:27.817Z,1.90
2023-05-17T09:27:02.736Z,1.90
2023-05-17T09:29:33.347Z,1.80
2023-05-17T09:32:13.795Z,2.00
2023-05-17T09:34:42.816Z,1.77
2023-05-17T09:37:15.883Z,2.17
2023-05-17T09:39:46.116Z,1.60
2023-05-17T09:42:16.748Z,2.20
2023-05-17T09:44:53.168Z,1.90
2023-05-17T09:47:28.975Z,1.93
2023-05-17T09:49:58.197Z,1.90
2023-05-17T09:52:26.913Z,1.70
2023-05-17T09:57:44.318Z,1.90
2023-05-17T10:00:13.393Z,2.00
2023-05-17T10:02:43.535Z,2.00
2023-05-17T10:05:13.234Z,2.00
2023-05-17T10:07:42.794Z,1.83
2023-05-17T10:10:12.143Z,1.83
2023-05-17T10:12:42.322Z,1.93
2023-05-17T10:15:13.068Z,1.90
2023-05-17T10:17:44.598Z,1.77
2023-05-17T10:20:15.352Z,1.97
2023-05-17T10:22:43.985Z,1.70
2023-05-17T10:25:12.529Z,2.17
2023-05-17T10:27:41.763Z,1.53
2023-05-17T10:30:14.565Z,1.90
2023-05-17T10:32:43.249Z,2.00
2023-05-17T10:35:15.063Z,2.17
2023-05-17T10:37:43.191Z,2.00
2023-05-17T10:40:14.041Z,2.17
2023-05-17T10:42:45.715Z,1.97
2023-05-17T10:45:15.449Z,2.43
2023-05-17T10:47:46.031Z,2.20
2023-05-17T10:50:15.099Z,2.00
2023-05-17T10:52:48.918Z,2.13
2023-05-17T10:55:20.604Z,1.50
2023-05-17T10:58:15.949Z,2.00
2023-05-17T11:00:47.373Z,2.00
2023-05-17T11:03:17.709Z,2.17
2023-05-17T11:06:11.388Z,2.20
2023-05-17T11:08:47.550Z,2.20
2023-05-17T11:11:19.348Z,1.83
2023-05-17T11:13:52.095Z,2.00
2023-05-17T11:16:24.119Z,1.77
2023-05-17T11:18:53.428Z,1.70
2023-05-17T11:21:22.642Z,1.80
2023-05-17T11:23:56.586Z,1.53
2023-05-17T11:26:30.404Z,1.90
2023-05-17T11:29:03.110Z,1.60
2023-05-17T11:31:33.478Z,1.90
2023-05-17T11:34:03.586Z,1.83
2023-05-17T11:36:31.928Z,1.90
2023-05-17T11:39:13.869Z,1.70
2023-05-17T11:41:49.403Z,1.60
2023-05-17T11:44:19.284Z,2.10
2023-05-17T11:46:48.663Z,1.63
2023-05-17T11:49:34.401Z,1.63
2023-05-17T11:52:04.935Z,1.80
2023-05-17T11:54:33.330Z,1.90
2023-05-17T11:57:02.838Z,2.10
2023-05-17T12:02:32.373Z,1.77
2023-05-17T12:05:00.827Z,1.70
2023-05-17T12:07:29.870Z,1.83
2023-05-17T12:09:57.878Z,1.97
2023-05-17T12:12:27.012Z,2.37
2023-05-17T12:14:55.039Z,1.93
2023-05-17T12:17:38.734Z,1.70
2023-05-17T12:20:12.299Z,1.40
2023-05-17T12:22:53.458Z,1.80
2023-05-17T12:25:23.520Z,2.10
2023-05-17T12:27:51.537Z,1.90
2023-05-17T12:30:20.597Z,1.70
2023-05-17T12:32:49.075Z,1.83
2023-05-17T12:35:18.786Z,2.37
2023-05-17T12:37:46.956Z,1.77
2023-05-17T12:40:15.282Z,1.73
2023-05-17T12:42:43.923Z,1.43
2023-05-17T12:45:13.562Z,2.07
2023-05-17T12:47:41.661Z,1.43
2023-05-17T12:50:10.634Z,1.57
2023-05-17T12:52:42.152Z,1.60
2023-05-17T12:55:14.290Z,1.40
2023-05-17T12:57:50.280Z,1.50
2023-05-17T13:00:19.441Z,1.50
2023-05-17T13:02:47.609Z,1.80
2023-05-17T13:05:18.320Z,1.53
2023-05-17T13:07:47.762Z,2.00
2023-05-17T13:10:26.200Z,1.30
2023-05-17T13:12:58.520Z,1.40
2023-05-17T13:15:30.559Z,1.97
2023-05-17T13:17:58.903Z,1.50
2023-05-17T13:20:28.428Z,1.90
2023-05-17T13:22:58.039Z,1.57
2023-05-17T13:25:26.337Z,1.87
2023-05-17T13:27:55.480Z,1.77
2023-05-17T13:30:23.649Z,1.70
2023-05-17T13:32:52.371Z,1.80
2023-05-17T13:35:41.124Z,1.87
2023-05-17T13:38:10.428Z,2.13
2023-05-17T13:40:38.750Z,1.50
2023-05-17T13:43:09.129Z,1.73
2023-05-17T13:45:38.337Z,1.53
2023-05-17T13:48:06.476Z,1.50
2023-05-17T13:50:34.952Z,1.40
2023-05-17T13:53:04.778Z,1.53
2023-05-17T13:55:34.415Z,1.80
2023-05-17T13:58:02.287Z,1.77
2023-05-17T14:00:30.373Z,1.70
2023-05-17T14:02:58.583Z,1.67
2023-05-17T14:05:26.768Z,1.23
2023-05-17T14:07:54.693Z,1.63
2023-05-17T14:10:22.669Z,1.50
2023-05-17T14:12:52.005Z,1.60
2023-05-17T14:15:20.010Z,1.60
2023-05-17T14:17:47.989Z,1.80
2023-05-17T14:20:16.447Z,1.73
2023-05-17T14:23:03.939Z,1.87
2023-05-17T14:25:31.959Z,1.73
2023-05-17T14:28:01.247Z,1.50
2023-05-17T14:30:48.789Z,1.67
2023-05-17T14:33:16.951Z,1.40
2023-05-17T14:35:45.012Z,1.50
2023-05-17T14:38:12.971Z,1.50
2023-05-17T14:40:40.949Z,1.80
2023-05-17T14:43:10.276Z,1.63
2023-05-17T14:45:38.192Z,1.70
2023-05-17T14:48:06.502Z,1.53
2023-05-17T14:50:34.907Z,1.50
2023-05-17T14:53:02.849Z,1.70
2023-05-17T14:55:31.210Z,1.70
2023-05-17T14:57:59.298Z,1.57
2023-05-17T15:00:28.583Z,1.53
2023-05-17T15:02:56.809Z,1.80
2023-05-17T15:05:25.662Z,1.97
2023-05-17T15:07:54.080Z,2.07
2023-05-17T15:10:22.630Z,1.80
2023-05-17T15:12:50.575Z,1.83
2023-05-17T15:15:20.517Z,2.07
2023-05-17T15:17:49.808Z,2.30
2023-05-17T15:20:20.033Z,1.90
2023-05-17T15:22:48.206Z,1.90
2023-05-17T15:25:16.548Z,1.70
2023-05-17T15:27:44.453Z,1.70
2023-05-17T15:30:13.800Z,1.80
2023-05-17T15:32:42.637Z,1.70
2023-05-17T15:35:12.302Z,1.77
2023-05-17T15:37:40.185Z,1.87
2023-05-17T15:40:10.728Z,1.70
2023-05-17T15:42:38.762Z,1.57
2023-05-17T15:45:07.770Z,2.17
2023-05-17T15:47:43.111Z,1.60
2023-05-17T15:50:13.934Z,1.87
2023-05-17T15:52:42.002Z,2.00
2023-05-17T15:55:10.901Z,1.60
2023-05-17T15:57:38.842Z,1.60
2023-05-17T16:00:09.375Z,1.90
2023-05-17T16:02:37.389Z,2.00
2023-05-17T16:05:05.805Z,1.90
2023-05-17T16:07:35.043Z,1.83
2023-05-17T16:10:03.056Z,1.90
2023-05-17T16:12:31.062Z,1.73
2023-05-17T16:14:59.026Z,1.80
2023-05-17T16:17:26.996Z,1.83
2023-05-17T16:19:55.009Z,1.80
2023-05-17T16:22:22.973Z,1.63
2023-05-17T16:24:55.183Z,1.90
2023-05-17T16:27:23.097Z,1.73
2023-05-17T16:29:51.019Z,2.00
2023-05-17T16:32:19.126Z,2.03
2023-05-17T16:34:47.163Z,2.10
2023-05-17T16:37:15.044Z,1.70
2023-05-17T16:39:43.053Z,1.80
2023-05-17T16:44:59.166Z,2.00
2023-05-17T16:47:28.004Z,1.93
2023-05-17T16:49:56.612Z,1.77
2023-05-17T16:52:24.626Z,2.17
2023-05-17T16:54:52.632Z,1.87
2023-05-17T16:57:21.869Z,2.00
2023-05-17T16:59:49.801Z,1.60
2023-05-17T17:02:17.874Z,2.20
2023-05-17T17:04:45.810Z,1.80
2023-05-17T17:07:13.788Z,2.07
2023-05-17T17:09:42.797Z,1.90
2023-05-17T17:12:23.405Z,1.90
2023-05-17T17:14:53.208Z,1.80
2023-05-17T17:17:21.366Z,2.00
2023-05-17T17:19:49.300Z,1.73
2023-05-17T17:22:17.322Z,2.00
2023-05-17T17:24:45.323Z,2.10
2023-05-17T17:27:13.322Z,2.27
2023-05-17T17:29:41.283Z,2.40
2023-05-17T17:32:11.543Z,2.20
2023-05-17T17:34:39.745Z,2.40
2023-05-17T17:37:07.773Z,2.00
2023-05-17T17:39:36.080Z,2.10
2023-05-17T17:42:04.107Z,1.97
2023-05-17T17:44:32.004Z,1.70
2023-05-17T17:46:59.991Z,1.80
2023-05-17T17:49:48.247Z,1.90
2023-05-17T17:52:16.269Z,1.80
2023-05-17T17:54:45.956Z,1.93
2023-05-17T17:57:14.214Z,2.00
2023-05-17T17:59:42.130Z,1.77
2023-05-17T18:02:10.113Z,1.70
2023-05-17T18:04:40.424Z,2.00
2023-05-17T18:07:08.364Z,2.30
2023-05-17T18:09:36.315Z,2.27
2023-05-17T18:12:04.294Z,2.13
2023-05-17T18:14:33.667Z,2.00
2023-05-17T18:17:01.948Z,2.43
2023-05-17T18:19:30.011Z,2.67
2023-05-17T18:21:59.318Z,2.10
2023-05-17T18:24:27.223Z,2.00
2023-05-17T18:26:55.264Z,1.53
2023-05-17T18:29:23.184Z,1.90
2023-05-17T18:31:51.846Z,2.23
2023-05-17T18:34:20.139Z,2.30
2023-05-17T18:36:48.128Z,2.30
2023-05-17T18:39:17.384Z,2.00
2023-05-17T18:41:45.338Z,2.20
2023-05-17T18:44:14.982Z,1.93
2023-05-17T18:46:44.726Z,2.10
2023-05-17T18:49:13.126Z,2.10
2023-05-17T18:54:31.192Z,2.53
2023-05-17T18:56:59.189Z,2.77
2023-05-17T18:59:27.190Z,2.40
2023-05-17T19:01:59.482Z,4.63
2023-05-17T19:06:55.843Z,2.60
2023-05-17T19:09:23.801Z,2.73
2023-05-17T19:11:53.175Z,3.07
2023-05-17T19:14:21.126Z,2.10
2023-05-17T19:16:50.183Z,2.80
2023-05-17T19:19:18.388Z,2.43
2023-05-17T19:21:46.490Z,2.40
2023-05-17T19:24:14.493Z,2.47
2023-05-17T19:26:42.534Z,2.87
2023-05-17T19:29:11.917Z,2.30
2023-05-17T19:31:39.868Z,2.33
2023-05-17T19:34:07.885Z,2.40
2023-05-17T19:36:35.914Z,2.20
2023-05-17T19:39:03.995Z,2.60
2023-05-17T19:41:31.935Z,2.50
2023-05-17T19:43:59.887Z,2.57
2023-05-17T19:46:29.281Z,2.60
2023-05-17T19:48:58.107Z,2.60
2023-05-17T19:51:26.273Z,2.60
2023-05-17T19:53:54.543Z,2.53
2023-05-17T19:56:23.874Z,2.40
2023-05-17T19:58:52.134Z,2.80
2023-05-17T20:01:21.374Z,2.40
2023-05-17T20:03:50.950Z,2.40
2023-05-17T20:06:19.035Z,2.23
2023-05-17T20:08:47.054Z,2.73
2023-05-17T20:11:15.031Z,2.90
2023-05-17T20:13:43.048Z,2.40
2023-05-17T20:16:13.496Z,2.73
2023-05-17T20:18:42.964Z,2.50
2023-05-17T20:21:15.129Z,2.90
2023-05-17T20:24:03.938Z,2.50
2023-05-17T20:26:36.347Z,2.63
2023-05-17T20:29:06.084Z,2.70
2023-05-17T20:31:34.457Z,2.93
2023-05-17T20:34:02.687Z,2.70
2023-05-17T20:36:32.334Z,3.30
2023-05-17T20:39:00.648Z,2.73
2023-05-17T20:41:28.638Z,2.80
2023-05-17T20:43:56.702Z,2.77
2023-05-17T20:46:24.742Z,3.13
2023-05-17T20:48:53.600Z,2.63
2023-05-17T20:51:22.387Z,2.93
2023-05-17T20:53:51.715Z,3.37
2023-05-17T20:56:19.670Z,2.73
2023-05-17T20:58:49.389Z,3.20
2023-05-17T21:01:17.393Z,3.10
2023-05-17T21:03:45.820Z,3.40
2023-05-17T21:06:14.016Z,3.07
2023-05-17T21:08:42.808Z,3.50
2023-05-17T21:11:15.093Z,2.90
2023-05-17T21:13:42.973Z,3.17
2023-05-17T21:16:10.950Z,3.00
2023-05-17T21:18:40.253Z,2.77
2023-05-17T21:21:08.304Z,3.20
2023-05-17T21:23:36.237Z,3.73
2023-05-17T21:26:04.300Z,2.93
2023-05-17T21:28:33.571Z,3.03
2023-05-17T21:31:01.736Z,3.57
2023-05-17T21:33:29.996Z,3.23
2023-05-17T21:35:58.074Z,3.43
2023-05-17T21:38:26.206Z,3.40
2023-05-17T21:40:55.478Z,3.17
2023-05-17T21:43:23.441Z,3.83
2023-05-17T21:45:52.868Z,2.70
2023-05-17T21:48:20.902Z,3.40
2023-05-17T21:50:49.747Z,3.00
2023-05-17T21:53:17.717Z,3.90
2023-05-17T21:56:01.207Z,3.20
2023-05-17T21:58:30.936Z,3.73
2023-05-17T22:01:00.355Z,3.33
2023-05-17T22:03:28.611Z,3.20
2023-05-17T22:05:56.557Z,3.10
2023-05-17T22:08:24.526Z,3.53
2023-05-17T22:10:54.241Z,3.30
2023-05-17T22:13:26.026Z,3.70
2023-05-17T22:16:15.172Z,3.30
2023-05-17T22:18:45.373Z,3.33
2023-05-17T22:21:14.509Z,3.70
2023-05-17T22:23:43.267Z,3.57
2023-05-17T22:26:11.257Z,3.43
2023-05-17T22:28:39.214Z,2.90
2023-05-17T22:31:08.070Z,3.20
2023-05-17T22:33:37.493Z,3.27
2023-05-17T22:36:06.090Z,3.07
2023-05-17T22:38:34.060Z,3.10
2023-05-17T22:41:02.020Z,3.70
2023-05-17T22:43:30.068Z,3.33
2023-05-17T22:45:59.857Z,3.10
2023-05-17T22:48:30.268Z,3.30
2023-05-17T22:51:00.812Z,3.43
2023-05-17T22:53:29.463Z,3.43
2023-05-17T22:55:57.830Z,3.43
2023-05-17T22:58:25.778Z,3.30
2023-05-17T23:00:53.917Z,4.00
2023-05-17T23:03:21.937Z,3.17
2023-05-17T23:05:51.397Z,3.60
2023-05-17T23:08:22.299Z,3.23
2023-05-17T23:10:51.543Z,3.30
2023-05-17T23:13:19.418Z,3.70
2023-05-17T23:15:47.339Z,3.10
2023-05-17T23:18:16.128Z,3.37
2023-05-17T23:20:45.519Z,3.13
2023-05-17T23:23:15.339Z,4.03
2023-05-17T23:25:48.663Z,3.60
2023-05-17T23:28:18.242Z,3.83
2023-05-17T23:30:48.493Z,3.63
2023-05-17T23:33:16.550Z,3.70
2023-05-17T23:35:44.488Z,3.60
2023-05-17T23:38:12.578Z,3.70
2023-05-17T23:40:40.923Z,3.87
2023-05-17T23:43:10.485Z,3.50
2023-05-17T23:45:38.706Z,3.60
2023-05-17T23:48:09.855Z,3.50
2023-05-17T23:50:38.071Z,3.67
2023-05-17T23:53:06.121Z,3.53
2023-05-17T23:55:34.065Z,3.80
2023-05-17T23:58:01.961Z,3.73
